Dedeağaç, Yunanistan

Saat: 08:32 PM EEST Tarih: 23 Temmuz 2014 (GMT +0300)
Alexandroupolis (ITHRACEA3) Elev 144 ft | 40.85 °N, 25.86 °E | Change Station
Aktif Uyarı: Thunderstorms

Current weather conditions updated 1 minute ago

Partly Cloudy
Parçalı Bulutlu
75.8
Feels Like 77
N
2.0
Rüzgar Değişken Rüzgar from BGB
Gusts 2.0 mil

Tomorrow is forecast to be Warmer than today. Sabah saatlerinde gök gürültülü sağanak yağışı..

Bugün
High -- | Low -- F°
--% Chance of Precip.
Dün
High -- | Low -- F°
Precip. -- inç
6:04 AM 8:41 PM
Hilal, 9% visible
Basınç 29.65 inç
Görüş Uzaklığı 6.2 mil
Bulutlar Few 2500 ft
Sıcaklık endeksi 77
Çiğ noktası 69
Nem oranı 79%
Yağış 0.00 inç
Kar Kalınlığı Not available.
0 out of 12
Pollen Not available.
Hava Kalitesi Not available.
Flu Activity Not available.
METAR LGAL 231720Z 24004KT 9999 FEW025TCU 27/21 Q1004

More Conditions Fewer Conditions

Basınç 29.65 inç
Görüş Uzaklığı 6.2 mil
Bulutlar Few 2500 ft
Sıcaklık endeksi 77
Çiğ noktası 69
Nem oranı 79%
Yağış 0.00 inç
Kar Kalınlığı Not available.
0 out of 12
Pollen Not available.
Hava Kalitesi Not available.
Flu Activity Not available.
METAR LGAL 231720Z 24004KT 9999 FEW025TCU 27/21 Q1004

More Conditions Fewer Conditions

10-Day Weather Forecast

Almanac

Gökbilim

Jul. 23, 2014 Rise Set
Gerçek Zaman 06:04 EEST 20:41 EEST
Günlük Tan 05:32 EEST 21:12 EEST
Deniz Tanı 04:52 EEST 21:52 EEST
Geceyarısı Yıldız Zamanı 04:07 EEST 22:36 EEST
Ay 03:08 EEST 17:53 EEST
Görünür Işığın Uzunluğu 15h 40m
Günün Uzunluğu
14h 37m
Tomorrow will be 1m 45s shorter.
Hilal, 9% of the Moon is Illuminated
Bugün
Hilal
Jul 26
New
Aug 3
İlk Hilãl
Aug 10
Dolunay
Aug 17
Son Hilãl

Günün En Yüksekleri

Country Highs Country Lows

Community

WunderPhotos

Upload Photos

1,736,684 photos uploaded!

Nearby

Kar Kalınlığı

Not available.

Earthquake Activity

Şehir Distance Mag. Time & Date
No recent earthquake activity has been reported nearby.
Minimum magnitude displayed is 2.5.

Coastal Water Temperatures

Yer Sıcaklık
No Stations Reporting

Nearby Weather Stations

Station Location Sıcaklık Sıcaklık endeksi Çiğ noktası Nem oranı Rüzgar Precip. Elev Güncellenme Zamanı Biçim
Alexandroupolis, Evros 75.8 F° 77 F° 69 F° 79% BGB  yönü  2.0 mil 0.00 inç / hr 144 ft 8:30 PM EEST Normal

Show More Stations Show Fewer Stations